Time;durP1;ratioP1;P1;durP2;ratioP2;P2;SDS_P1;SDS_P2;PMS_P1;PMS_P2;Temp;Humidity;BMP_temperature;BMP_pressure;BME280_temperature;BME280_humidity;BME280_pressure;Samples;Min_cycle;Max_cycle;Signal;HPM_P1;HPM_P2
2021/07/02 00:01:42;;;;;;;9.50;4.53;;;15.30;99.90;;;;;;4447909;28;656247;-70
2021/07/02 00:04:30;;;;;;;8.07;4.63;;;15.30;99.90;;;;;;4427604;28;655743;-71
2021/07/02 00:07:17;;;;;;;7.60;4.73;;;15.30;99.90;;;;;;4449431;28;655982;-70
2021/07/02 00:10:05;;;;;;;5.13;4.07;;;15.30;99.90;;;;;;4427343;28;655904;-70
2021/07/02 00:12:53;;;;;;;6.53;3.93;;;15.30;99.90;;;;;;4428098;28;654670;-71
2021/07/02 00:15:40;;;;;;;7.10;4.40;;;15.20;99.90;;;;;;4448849;28;655777;-71
2021/07/02 00:18:29;;;;;;;5.90;4.10;;;15.10;99.90;;;;;;4425362;28;655008;-71
2021/07/02 00:21:17;;;;;;;7.27;4.80;;;15.10;99.90;;;;;;4451416;28;654541;-70
2021/07/02 00:24:05;;;;;;;4.80;4.10;;;15.10;99.90;;;;;;4425915;28;655496;-70
2021/07/02 00:26:53;;;;;;;7.73;4.40;;;15.10;99.90;;;;;;4440841;28;654691;-70
2021/07/02 00:29:40;;;;;;;8.17;4.90;;;15.10;99.90;;;;;;4452490;28;655127;-70
2021/07/02 00:32:28;;;;;;;9.90;4.70;;;15.20;99.90;;;;;;4426122;28;655535;-70
2021/07/02 00:35:17;;;;;;;8.10;5.17;;;15.20;99.90;;;;;;4453180;28;655672;-71
2021/07/02 00:38:04;;;;;;;8.07;4.70;;;15.20;99.90;;;;;;4428316;28;654148;-71
2021/07/02 00:40:52;;;;;;;8.63;4.50;;;15.20;99.90;;;;;;4452413;28;654288;-70
2021/07/02 00:43:48;;;;;;;9.93;4.57;;;15.20;99.90;;;;;;4435057;28;655476;-71
2021/07/02 00:46:36;;;;;;;12.20;4.23;;;15.20;99.90;;;;;;4421786;28;654909;-71
2021/07/02 00:49:23;;;;;;;7.20;4.53;;;15.20;99.90;;;;;;4429884;28;655336;-71
2021/07/02 00:52:13;;;;;;;9.07;4.73;;;15.20;99.90;;;;;;4450738;28;654506;-71
2021/07/02 00:55:01;;;;;;;6.00;5.00;;;15.20;99.90;;;;;;4430819;28;655197;-71
2021/07/02 00:57:48;;;;;;;9.07;5.30;;;15.30;99.90;;;;;;4434296;28;654874;-71
2021/07/02 01:00:36;;;;;;;8.27;4.60;;;15.30;99.90;;;;;;4453261;28;655259;-70
2021/07/02 01:03:24;;;;;;;6.07;4.67;;;15.30;99.90;;;;;;4434105;28;654558;-71
2021/07/02 01:06:11;;;;;;;7.23;5.03;;;15.30;99.90;;;;;;4447108;28;654411;-71
2021/07/02 01:09:03;;;;;;;8.07;4.97;;;15.30;99.90;;;;;;4417363;28;654565;-71
2021/07/02 01:11:50;;;;;;;8.90;5.50;;;15.40;99.90;;;;;;4425882;28;654962;-70
2021/07/02 01:14:38;;;;;;;13.93;5.37;;;15.40;99.90;;;;;;4433125;28;654894;-70
2021/07/02 01:17:25;;;;;;;10.43;5.53;;;15.40;99.90;;;;;;4447272;28;655386;-71
2021/07/02 01:20:13;;;;;;;9.10;4.90;;;15.50;99.90;;;;;;4432454;28;655552;-71
2021/07/02 01:23:03;;;;;;;5.63;4.10;;;15.50;99.90;;;;;;4449556;28;654985;-71
2021/07/02 01:25:50;;;;;;;5.67;4.80;;;15.50;99.90;;;;;;4419170;28;655699;-71
2021/07/02 01:28:38;;;;;;;9.63;5.07;;;15.50;99.90;;;;;;4434072;28;655103;-71
2021/07/02 01:31:25;;;;;;;7.20;4.63;;;15.50;99.90;;;;;;4451732;28;654803;-70
2021/07/02 01:34:13;;;;;;;8.60;4.63;;;15.60;99.90;;;;;;4432578;28;654750;-71
2021/07/02 01:37:00;;;;;;;8.83;4.83;;;15.60;99.90;;;;;;4452500;28;654780;-71
2021/07/02 01:39:49;;;;;;;8.83;5.57;;;15.60;99.90;;;;;;4432243;28;654467;-71
2021/07/02 01:42:37;;;;;;;9.37;4.57;;;15.60;99.90;;;;;;4445088;28;655073;-70
2021/07/02 01:45:24;;;;;;;5.60;4.43;;;15.60;99.90;;;;;;4432185;28;654914;-70
2021/07/02 01:48:12;;;;;;;6.60;4.10;;;15.60;99.90;;;;;;4451539;28;654918;-71
2021/07/02 01:50:59;;;;;;;10.23;4.50;;;15.60;99.90;;;;;;4432565;28;655296;-71
2021/07/02 01:53:47;;;;;;;10.05;4.90;;;15.60;99.90;;;;;;4442670;28;655659;-71
2021/07/02 01:56:36;;;;;;;7.73;5.23;;;15.60;99.90;;;;;;4431947;28;656555;-70
2021/07/02 01:59:23;;;;;;;6.57;4.80;;;15.60;99.90;;;;;;4420770;28;654993;-70
2021/07/02 02:02:11;;;;;;;9.73;4.93;;;15.60;99.90;;;;;;4447021;28;654724;-71
2021/07/02 02:04:59;;;;;;;7.73;5.30;;;15.60;99.90;;;;;;4424118;28;654328;-71
2021/07/02 02:07:46;;;;;;;5.87;4.93;;;15.60;99.90;;;;;;4454315;28;655128;-71
2021/07/02 02:10:34;;;;;;;8.88;5.30;;;15.60;99.90;;;;;;4429510;28;655072;-71
2021/07/02 02:13:22;;;;;;;6.97;5.07;;;15.60;99.90;;;;;;4451737;28;654277;-70
2021/07/02 02:16:10;;;;;;;8.83;5.17;;;15.60;99.90;;;;;;4428405;28;655058;-71
2021/07/02 02:18:58;;;;;;;6.40;4.47;;;15.60;99.90;;;;;;4439156;28;654567;-71
2021/07/02 02:21:45;;;;;;;9.90;4.80;;;15.60;99.90;;;;;;4451496;28;655382;-70
2021/07/02 02:24:33;;;;;;;6.97;4.57;;;15.60;99.90;;;;;;4425212;28;655105;-71
2021/07/02 02:27:20;;;;;;;6.33;4.27;;;15.50;99.90;;;;;;4450592;28;655292;-70
2021/07/02 02:30:10;;;;;;;7.63;4.50;;;15.50;99.90;;;;;;4432202;28;654823;-70
2021/07/02 02:33:00;;;;;;;6.63;4.80;;;15.50;99.90;;;;;;4434235;28;654926;-69
2021/07/02 02:35:48;;;;;;;7.53;4.40;;;15.40;99.90;;;;;;4431899;28;654744;-70
2021/07/02 02:38:35;;;;;;;5.03;4.53;;;15.50;99.90;;;;;;4444524;28;654758;-69
2021/07/02 02:41:23;;;;;;;9.70;5.10;;;15.50;99.90;;;;;;4425534;28;654409;-70
2021/07/02 02:44:11;;;;;;;7.73;5.07;;;15.50;99.90;;;;;;4450331;28;655100;-69
2021/07/02 02:47:00;;;;;;;7.50;5.63;;;15.50;99.90;;;;;;4425325;28;654524;-69
2021/07/02 02:49:48;;;;;;;7.57;5.60;;;15.50;99.90;;;;;;4437772;28;654744;-70
2021/07/02 02:52:35;;;;;;;8.70;5.77;;;15.50;99.90;;;;;;4446121;28;654925;-69
2021/07/02 02:55:23;;;;;;;8.00;5.57;;;15.60;99.90;;;;;;4432724;28;654289;-70
2021/07/02 02:58:10;;;;;;;6.73;5.30;;;15.60;99.90;;;;;;4454197;28;654752;-70
2021/07/02 03:00:58;;;;;;;11.73;5.80;;;15.70;99.90;;;;;;4432035;28;654512;-70
2021/07/02 03:03:47;;;;;;;9.60;5.20;;;15.60;99.90;;;;;;4449395;28;656570;-69
2021/07/02 03:06:34;;;;;;;7.50;5.70;;;15.70;99.90;;;;;;4417154;28;654629;-70
2021/07/02 03:09:22;;;;;;;7.60;5.30;;;15.70;99.90;;;;;;4450697;28;654672;-69
2021/07/02 03:12:09;;;;;;;9.17;5.40;;;15.70;99.90;;;;;;4427449;28;654332;-69
2021/07/02 03:14:57;;;;;;;6.93;5.37;;;15.80;99.90;;;;;;4453811;28;654308;-69
2021/07/02 03:17:44;;;;;;;10.40;6.00;;;15.80;99.90;;;;;;4432135;28;654283;-69
2021/07/02 03:20:33;;;;;;;10.13;5.93;;;15.80;99.90;;;;;;4448457;28;655030;-69
2021/07/02 03:23:20;;;;;;;8.87;5.70;;;15.90;99.90;;;;;;4421329;28;656253;-69
2021/07/02 03:26:08;;;;;;;10.70;5.97;;;15.90;99.90;;;;;;4423381;28;655495;-69
2021/07/02 03:28:55;;;;;;;7.03;5.87;;;15.90;99.90;;;;;;4451059;28;656506;-69
2021/07/02 03:31:43;;;;;;;8.63;5.80;;;16.00;99.90;;;;;;4431331;28;656271;-70
2021/07/02 03:34:30;;;;;;;8.90;5.83;;;16.00;99.90;;;;;;4451073;28;654700;-69
2021/07/02 03:37:19;;;;;;;12.17;6.60;;;16.00;99.90;;;;;;4430422;28;654344;-70
2021/07/02 03:40:08;;;;;;;11.83;6.20;;;16.10;99.90;;;;;;4448370;28;655593;-69
2021/07/02 03:42:55;;;;;;;9.30;6.13;;;16.10;99.90;;;;;;4426091;28;655987;-69
2021/07/02 03:45:43;;;;;;;11.93;6.60;;;16.10;99.90;;;;;;4415018;28;654252;-70
2021/07/02 03:48:30;;;;;;;8.07;6.20;;;16.10;99.90;;;;;;4441015;28;656268;-69
2021/07/02 03:51:18;;;;;;;11.37;6.63;;;16.10;99.90;;;;;;4432155;28;654692;-70
2021/07/02 03:54:07;;;;;;;9.53;6.60;;;16.10;99.90;;;;;;4449352;28;656364;-69
2021/07/02 03:57:12;;;;;;;11.00;6.77;;;16.10;99.90;;;;;;4428667;28;654229;-69
2021/07/02 04:00:00;;;;;;;9.73;6.97;;;16.20;99.90;;;;;;4394245;28;655760;-69
2021/07/02 04:02:48;;;;;;;9.67;6.73;;;16.20;99.90;;;;;;4445586;28;654162;-70
2021/07/02 04:05:35;;;;;;;10.37;6.73;;;16.10;99.90;;;;;;4453966;28;655145;-69
2021/07/02 04:08:23;;;;;;;8.35;6.80;;;16.10;99.90;;;;;;4425959;28;655205;-70
2021/07/02 04:11:12;;;;;;;10.27;6.43;;;16.10;99.90;;;;;;4457353;28;654194;-69
2021/07/02 04:13:59;;;;;;;13.67;7.20;;;16.20;99.90;;;;;;4426252;28;655892;-69
2021/07/02 04:16:47;;;;;;;11.93;7.07;;;16.20;99.90;;;;;;4452054;28;655945;-69
2021/07/02 04:19:35;;;;;;;14.50;6.67;;;16.20;99.90;;;;;;4433202;28;656321;-69
2021/07/02 04:22:23;;;;;;;12.47;6.57;;;16.20;99.90;;;;;;4433490;28;656079;-69
2021/07/02 04:25:12;;;;;;;11.43;6.70;;;16.30;99.90;;;;;;4449652;28;655768;-69
2021/07/02 04:28:01;;;;;;;12.60;6.67;;;16.30;99.90;;;;;;4423108;28;656304;-69
2021/07/02 04:30:48;;;;;;;10.70;6.50;;;16.30;99.90;;;;;;4427057;28;655828;-70
2021/07/02 04:33:35;;;;;;;10.77;5.93;;;16.30;99.90;;;;;;4454065;28;656325;-69
2021/07/02 04:36:23;;;;;;;13.13;6.50;;;16.40;99.90;;;;;;4423532;28;655977;-69
2021/07/02 04:39:11;;;;;;;10.70;6.13;;;16.50;99.90;;;;;;4435185;28;656095;-69
2021/07/02 04:41:58;;;;;;;11.23;6.33;;;16.50;99.90;;;;;;4407822;28;655632;-69
2021/07/02 04:44:47;;;;;;;9.67;5.87;;;16.60;99.90;;;;;;4434415;28;656001;-69
2021/07/02 04:47:35;;;;;;;11.70;6.33;;;16.50;99.90;;;;;;4408663;28;655436;-69
2021/07/02 04:50:22;;;;;;;10.80;5.50;;;16.60;99.90;;;;;;4452071;28;655441;-69
2021/07/02 04:53:10;;;;;;;13.47;5.47;;;16.60;99.90;;;;;;4429534;28;655873;-69
2021/07/02 04:55:58;;;;;;;12.63;5.70;;;16.60;99.90;;;;;;4438763;28;655396;-69
2021/07/02 04:58:51;;;;;;;11.67;5.53;;;16.60;99.90;;;;;;4451221;28;656045;-69
2021/07/02 05:01:40;;;;;;;7.23;5.47;;;16.70;99.90;;;;;;4400889;28;656289;-69
2021/07/02 05:04:28;;;;;;;14.07;5.60;;;16.70;99.90;;;;;;4439058;28;654736;-69
2021/07/02 05:07:15;;;;;;;7.63;4.70;;;16.80;99.90;;;;;;4445473;28;656494;-69
2021/07/02 05:10:05;;;;;;;9.53;4.90;;;16.80;99.90;;;;;;4434308;28;654170;-69
2021/07/02 05:12:53;;;;;;;9.83;5.00;;;16.80;99.90;;;;;;4435950;28;654897;-69
2021/07/02 05:15:40;;;;;;;7.03;4.60;;;16.90;99.90;;;;;;4447004;28;655051;-69
2021/07/02 05:18:29;;;;;;;11.20;4.40;;;17.00;99.90;;;;;;4428439;28;654658;-69
2021/07/02 05:21:17;;;;;;;9.13;4.30;;;17.00;99.90;;;;;;4452124;28;656158;-69
2021/07/02 05:24:05;;;;;;;11.47;4.80;;;17.00;99.90;;;;;;4414348;28;655877;-69
2021/07/02 05:26:53;;;;;;;12.87;4.70;;;17.10;99.90;;;;;;4446436;28;655829;-69
2021/07/02 05:29:40;;;;;;;10.93;4.80;;;17.10;99.90;;;;;;4446409;28;655245;-69
2021/07/02 05:32:28;;;;;;;9.13;4.27;;;17.20;99.90;;;;;;4426716;28;655048;-69
2021/07/02 05:35:17;;;;;;;14.03;4.90;;;17.40;99.90;;;;;;4452478;28;654939;-69
2021/07/02 05:38:05;;;;;;;12.63;4.73;;;17.40;99.90;;;;;;4431334;28;656774;-69
2021/07/02 05:40:55;;;;;;;14.53;4.67;;;17.50;99.90;;;;;;4451303;28;656082;-69
2021/07/02 05:43:42;;;;;;;9.70;4.07;;;17.50;99.90;;;;;;4442613;28;655939;-69
2021/07/02 05:46:30;;;;;;;11.60;4.80;;;17.70;99.90;;;;;;4423898;28;655117;-69
2021/07/02 05:49:18;;;;;;;8.27;4.67;;;17.80;99.90;;;;;;4424022;28;656500;-69
2021/07/02 05:52:08;;;;;;;10.00;4.53;;;17.80;99.90;;;;;;4452318;28;654747;-69
2021/07/02 05:54:56;;;;;;;10.10;5.00;;;18.00;99.90;;;;;;4421322;28;656059;-68
2021/07/02 05:57:44;;;;;;;11.00;4.80;;;18.20;99.90;;;;;;4432384;28;656047;-69
2021/07/02 06:00:32;;;;;;;11.40;4.37;;;18.30;99.90;;;;;;4455216;28;655370;-68
2021/07/02 06:03:20;;;;;;;10.23;5.03;;;18.50;99.90;;;;;;4426357;28;656253;-68
2021/07/02 06:06:07;;;;;;;11.63;4.73;;;18.60;99.90;;;;;;4450926;28;656326;-68
2021/07/02 06:08:57;;;;;;;9.30;4.53;;;18.70;99.90;;;;;;4426099;28;655952;-68
2021/07/02 06:11:44;;;;;;;7.40;4.00;;;18.70;99.90;;;;;;4434236;28;655115;-69
2021/07/02 06:14:32;;;;;;;5.83;3.70;;;18.70;99.90;;;;;;4444805;28;655072;-68
2021/07/02 06:17:19;;;;;;;8.07;3.80;;;18.70;99.90;;;;;;4423199;28;656036;-68
2021/07/02 06:20:08;;;;;;;5.33;3.50;;;18.60;99.90;;;;;;4458084;28;654502;-68
2021/07/02 06:22:56;;;;;;;4.20;3.47;;;18.60;99.90;;;;;;4429128;28;655190;-69
2021/07/02 06:25:45;;;;;;;6.23;2.93;;;18.80;99.90;;;;;;4424889;28;655278;-68
2021/07/02 06:28:33;;;;;;;7.67;3.40;;;18.90;99.90;;;;;;4433041;28;654664;-69
2021/07/02 06:31:20;;;;;;;3.53;3.13;;;19.20;99.90;;;;;;4456153;28;654958;-69
2021/07/02 06:34:08;;;;;;;5.17;2.87;;;19.40;99.90;;;;;;4424107;28;655048;-70
2021/07/02 06:36:55;;;;;;;3.87;2.97;;;19.40;99.90;;;;;;4456136;28;655243;-68
2021/07/02 06:39:43;;;;;;;5.17;3.53;;;19.50;99.90;;;;;;4402047;28;654636;-68
2021/07/02 06:42:32;;;;;;;6.67;3.00;;;19.80;99.90;;;;;;4418612;28;655032;-68
2021/07/02 06:45:20;;;;;;;6.43;3.00;;;20.20;99.90;;;;;;4410408;28;655761;-68
2021/07/02 06:48:08;;;;;;;5.87;2.90;;;20.20;99.90;;;;;;4433580;28;654641;-69
2021/07/02 06:50:56;;;;;;;6.10;2.90;;;20.10;99.90;;;;;;4437302;28;656076;-68
2021/07/02 06:53:44;;;;;;;3.07;2.60;;;19.90;99.90;;;;;;4410778;28;654281;-68
2021/07/02 06:56:32;;;;;;;3.13;2.83;;;19.90;99.90;;;;;;4431490;28;654175;-68
2021/07/02 06:59:21;;;;;;;5.67;2.70;;;19.70;99.90;;;;;;4414181;28;655416;-67
2021/07/02 07:02:09;;;;;;;3.40;2.63;;;19.60;99.90;;;;;;4409416;28;654253;-69
2021/07/02 07:04:57;;;;;;;4.93;2.60;;;19.80;99.90;;;;;;4429870;28;654369;-68
2021/07/02 07:07:44;;;;;;;2.83;2.37;;;19.80;99.90;;;;;;4410767;28;655834;-68
2021/07/02 07:10:32;;;;;;;7.20;2.80;;;19.80;99.90;;;;;;4433034;28;654333;-68
2021/07/02 07:13:20;;;;;;;3.27;2.67;;;20.00;99.90;;;;;;4413837;28;655115;-68
2021/07/02 07:16:10;;;;;;;4.57;2.60;;;20.30;99.90;;;;;;4424663;28;654851;-69
2021/07/02 07:18:57;;;;;;;3.07;2.70;;;20.30;99.90;;;;;;4431897;28;654690;-68
2021/07/02 07:21:45;;;;;;;4.40;2.90;;;20.20;99.90;;;;;;4410271;28;655645;-68
2021/07/02 07:24:32;;;;;;;3.13;2.70;;;20.20;99.90;;;;;;4433553;28;655176;-68
2021/07/02 07:27:20;;;;;;;3.37;2.57;;;20.20;99.90;;;;;;4409534;28;655384;-68
2021/07/02 07:30:08;;;;;;;2.57;2.30;;;20.20;99.90;;;;;;4412598;28;654375;-69
2021/07/02 07:32:57;;;;;;;3.87;2.50;;;20.20;99.90;;;;;;4424914;28;654555;-69
2021/07/02 07:35:46;;;;;;;6.90;3.60;;;20.40;99.90;;;;;;4405824;28;654751;-68
2021/07/02 07:38:33;;;;;;;6.40;3.60;;;20.60;99.90;;;;;;4417691;28;654171;-68
2021/07/02 07:41:24;;;;;;;8.47;3.23;;;20.60;99.90;;;;;;4436426;28;655300;-69
2021/07/02 07:44:13;;;;;;;7.13;3.03;;;20.70;99.90;;;;;;4432917;28;655370;-69
2021/07/02 07:47:00;;;;;;;6.40;3.37;;;20.70;99.90;;;;;;4417844;28;656353;-68
2021/07/02 07:49:49;;;;;;;4.47;3.10;;;20.60;99.90;;;;;;4429404;28;654478;-69
2021/07/02 07:52:43;;;;;;;8.00;3.43;;;20.50;99.90;;;;;;4441237;28;654527;-68
2021/07/02 07:55:30;;;;;;;3.70;2.80;;;20.70;99.90;;;;;;4383965;28;655545;-67
2021/07/02 07:58:18;;;;;;;4.13;3.10;;;20.80;99.90;;;;;;4422911;28;654694;-69
2021/07/02 08:01:30;;;;;;;4.60;2.90;;;20.70;99.90;;;;;;4446573;28;655132;-68
2021/07/02 08:04:18;;;;;;;9.77;3.17;;;20.60;99.90;;;;;;4403679;28;654698;-69
2021/07/02 08:07:07;;;;;;;6.43;3.20;;;20.60;99.90;;;;;;4453892;28;654659;-69
2021/07/02 08:09:54;;;;;;;5.50;3.40;;;20.40;99.90;;;;;;4420276;28;656120;-68
2021/07/02 08:12:42;;;;;;;6.27;3.50;;;20.20;99.90;;;;;;4437441;28;654942;-68
2021/07/02 08:15:30;;;;;;;6.80;3.30;;;20.00;99.90;;;;;;4426250;28;656177;-68
2021/07/02 08:18:18;;;;;;;5.50;3.10;;;20.00;99.90;;;;;;4450336;28;654797;-67
2021/07/02 08:21:05;;;;;;;7.73;3.60;;;19.90;99.90;;;;;;4427305;28;655097;-68
2021/07/02 08:23:54;;;;;;;7.70;4.50;;;19.60;99.90;;;;;;4430770;28;654943;-71
2021/07/02 08:26:42;;;;;;;5.87;3.70;;;19.60;99.90;;;;;;4449906;28;653787;-68
2021/07/02 08:29:29;;;;;;;7.60;3.73;;;19.70;99.90;;;;;;4420872;28;655709;-68
2021/07/02 08:32:17;;;;;;;7.50;3.80;;;19.90;99.90;;;;;;4446995;28;654896;-67
2021/07/02 08:35:05;;;;;;;6.07;3.83;;;20.00;99.90;;;;;;4422003;28;654979;-68
2021/07/02 08:37:53;;;;;;;7.88;3.53;;;20.00;99.90;;;;;;4426096;28;654511;-68
2021/07/02 08:40:42;;;;;;;7.57;3.77;;;20.10;99.90;;;;;;4449519;28;655453;-67
2021/07/02 08:43:29;;;;;;;6.07;3.57;;;20.00;99.90;;;;;;4434087;28;655496;-67
2021/07/02 08:46:19;;;;;;;9.50;4.23;;;20.20;99.90;;;;;;4431974;28;654509;-67
2021/07/02 08:49:07;;;;;;;7.57;3.63;;;20.60;99.90;;;;;;4423262;28;655041;-67
2021/07/02 08:51:55;;;;;;;8.13;3.57;;;20.80;99.90;;;;;;4413791;28;655311;-67
2021/07/02 08:54:43;;;;;;;6.40;3.80;;;20.80;99.90;;;;;;4423730;28;654250;-68
2021/07/02 08:57:32;;;;;;;8.60;3.07;;;20.70;99.90;;;;;;4446348;28;655410;-68
2021/07/02 09:00:20;;;;;;;5.87;3.23;;;20.50;99.90;;;;;;4434143;28;654155;-68
2021/07/02 09:03:26;;;;;;;5.47;3.23;;;20.40;99.90;;;;;;4447137;28;654823;-68
2021/07/02 09:06:15;;;;;;;6.10;3.00;;;20.50;99.90;;;;;;4399824;28;655639;-67
2021/07/02 09:09:07;;;;;;;4.50;2.90;;;20.60;99.90;;;;;;4447689;28;654601;-67
2021/07/02 09:11:58;;;;;;;7.27;2.90;;;21.00;99.90;;;;;;4429145;28;655929;-68
2021/07/02 09:15:06;;;;;;;5.57;3.20;;;21.50;99.90;;;;;;4428989;28;655617;-67
2021/07/02 09:17:57;;;;;;;7.37;3.80;;;21.70;99.90;;;;;;4429835;28;654396;-68
2021/07/02 09:20:45;;;;;;;6.93;2.63;;;21.60;99.90;;;;;;4429383;28;655992;-68
2021/07/02 09:23:38;;;;;;;2.80;2.33;;;21.40;99.90;;;;;;4436457;28;654980;-69
2021/07/02 09:26:34;;;;;;;4.33;2.33;;;21.00;99.90;;;;;;4430903;28;655336;-67
2021/07/02 09:29:23;;;;;;;2.87;2.47;;;20.70;99.90;;;;;;4423011;28;654677;-67
2021/07/02 09:32:12;;;;;;;3.97;2.60;;;20.50;99.90;;;;;;4425385;28;655620;-67
2021/07/02 09:35:01;;;;;;;4.57;2.67;;;20.40;99.90;;;;;;4431404;28;655366;-67
2021/07/02 09:37:50;;;;;;;3.07;2.43;;;20.40;99.90;;;;;;4426813;28;654960;-67
2021/07/02 09:40:39;;;;;;;5.93;2.97;;;20.60;99.90;;;;;;4427132;28;654939;-68
2021/07/02 09:43:27;;;;;;;3.97;3.07;;;21.20;99.90;;;;;;4451964;28;654969;-67
2021/07/02 09:46:14;;;;;;;3.97;2.80;;;21.40;99.90;;;;;;4417561;28;654425;-67
2021/07/02 09:49:03;;;;;;;3.97;2.70;;;21.50;99.90;;;;;;4437598;28;654923;-67
2021/07/02 09:51:51;;;;;;;3.23;2.63;;;21.50;99.90;;;;;;4423867;28;654750;-67
2021/07/02 09:54:38;;;;;;;7.53;2.73;;;21.10;99.90;;;;;;4432577;28;654575;-66
2021/07/02 09:57:26;;;;;;;4.05;3.00;;;21.20;99.90;;;;;;4444999;28;655201;-67
2021/07/02 10:00:15;;;;;;;3.10;2.63;;;21.10;99.90;;;;;;4424970;28;654365;-67
2021/07/02 10:03:06;;;;;;;3.53;3.20;;;21.50;99.90;;;;;;4442234;28;654908;-68
2021/07/02 10:05:56;;;;;;;4.33;2.80;;;21.60;99.90;;;;;;4423327;28;654145;-67
2021/07/02 10:08:44;;;;;;;5.17;2.80;;;21.80;99.90;;;;;;4432736;28;654612;-67
2021/07/02 10:11:31;;;;;;;3.80;2.73;;;22.20;99.90;;;;;;4454634;28;654691;-67
2021/07/02 10:14:20;;;;;;;8.47;3.30;;;22.60;99.90;;;;;;4424000;28;654557;-67
2021/07/02 10:17:08;;;;;;;6.37;3.20;;;22.70;99.90;;;;;;4432606;28;654304;-69
2021/07/02 10:19:57;;;;;;;4.20;3.40;;;22.50;99.90;;;;;;4451842;28;656583;-67
2021/07/02 10:22:47;;;;;;;7.53;3.20;;;22.30;99.90;;;;;;4432671;28;655521;-67
2021/07/02 10:25:35;;;;;;;5.70;3.37;;;21.90;99.90;;;;;;4430331;28;655340;-66
2021/07/02 10:28:23;;;;;;;6.67;3.23;;;21.50;99.90;;;;;;4442510;28;654011;-69
2021/07/02 10:31:11;;;;;;;5.47;3.20;;;21.40;99.90;;;;;;4454756;28;654943;-67
2021/07/02 10:34:00;;;;;;;5.30;3.33;;;21.50;99.90;;;;;;4432114;28;654344;-67
2021/07/02 10:36:48;;;;;;;4.13;3.13;;;21.50;99.90;;;;;;4433739;28;654101;-69
2021/07/02 10:39:39;;;;;;;5.67;3.10;;;21.50;99.90;;;;;;4436180;28;654584;-67
2021/07/02 10:42:28;;;;;;;8.60;3.07;;;22.00;99.90;;;;;;4400378;28;654389;-67
2021/07/02 10:45:16;;;;;;;5.93;3.07;;;22.00;99.90;;;;;;4409659;28;654767;-67
2021/07/02 10:48:04;;;;;;;5.60;2.97;;;21.90;99.90;;;;;;4404805;28;654355;-67
2021/07/02 10:50:52;;;;;;;5.30;3.30;;;21.70;99.90;;;;;;4424415;28;654840;-66
2021/07/02 10:53:40;;;;;;;4.70;3.70;;;21.30;99.90;;;;;;4411061;28;654032;-66
2021/07/02 10:56:29;;;;;;;5.30;3.83;;;21.20;99.90;;;;;;4431511;28;654252;-66
2021/07/02 10:59:17;;;;;;;5.47;3.50;;;21.20;99.90;;;;;;4405384;28;654399;-66
2021/07/02 11:02:17;;;;;;;6.40;3.47;;;21.20;99.90;;;;;;4403513;28;655202;-67
2021/07/02 11:05:29;;;;;;;4.47;3.43;;;21.30;99.90;;;;;;4385562;28;654671;-67
2021/07/02 11:08:44;;;;;;;4.00;3.40;;;21.40;99.90;;;;;;4400692;28;654717;-67
2021/07/02 11:12:04;;;;;;;3.93;3.30;;;21.50;99.90;;;;;;4396717;28;655018;-67
2021/07/02 11:15:13;;;;;;;6.77;3.30;;;21.90;99.90;;;;;;4405746;28;654202;-67
2021/07/02 11:18:14;;;;;;;5.00;2.97;;;21.90;99.90;;;;;;4403075;28;654983;-67
2021/07/02 11:21:01;;;;;;;7.20;2.80;;;22.60;99.90;;;;;;4402557;28;654742;-67
2021/07/02 11:23:49;;;;;;;4.83;3.00;;;23.30;99.90;;;;;;4408204;28;654645;-67
2021/07/02 11:26:45;;;;;;;3.87;2.63;;;23.90;99.90;;;;;;4424082;28;655642;-67
2021/07/02 11:29:37;;;;;;;2.80;2.43;;;23.90;99.90;;;;;;4385991;28;655726;-68
2021/07/02 11:32:33;;;;;;;2.20;2.00;;;23.80;99.90;;;;;;4405203;28;657090;-67
2021/07/02 11:35:21;;;;;;;3.30;2.10;;;23.70;99.90;;;;;;4402457;28;655965;-67
2021/07/02 11:38:11;;;;;;;5.07;2.47;;;23.80;99.90;;;;;;4409518;28;655355;-66
2021/07/02 11:40:59;;;;;;;2.70;2.30;;;24.20;99.90;;;;;;4418693;28;656489;-66
2021/07/02 11:43:47;;;;;;;6.47;2.57;;;24.60;99.90;;;;;;4446458;28;655646;-66
2021/07/02 11:46:34;;;;;;;3.75;2.58;;;24.60;99.90;;;;;;4418574;28;656577;-66
2021/07/02 11:49:23;;;;;;;4.07;2.43;;;24.10;99.90;;;;;;4444053;28;655455;-66
2021/07/02 11:52:11;;;;;;;5.13;2.60;;;23.80;99.90;;;;;;4418912;28;656351;-69
2021/07/02 11:54:59;;;;;;;3.47;2.22;;;24.40;99.90;;;;;;4418013;28;656051;-67
2021/07/02 11:57:46;;;;;;;8.07;2.73;;;24.40;99.90;;;;;;4441857;28;656194;-69
2021/07/02 12:00:35;;;;;;;3.47;2.47;;;24.30;99.90;;;;;;4424123;28;655647;-67
2021/07/02 12:03:22;;;;;;;5.07;2.50;;;23.90;99.90;;;;;;4445789;28;655730;-67
2021/07/02 12:06:11;;;;;;;3.73;2.80;;;24.10;99.90;;;;;;4422351;28;656178;-66
2021/07/02 12:09:00;;;;;;;3.03;2.70;;;23.90;99.90;;;;;;4424499;28;655632;-68
2021/07/02 12:11:51;;;;;;;5.60;2.50;;;24.00;99.90;;;;;;4433507;28;655359;-68
2021/07/02 12:14:39;;;;;;;6.00;2.67;;;23.60;99.90;;;;;;4417152;28;655613;-66
2021/07/02 12:17:27;;;;;;;5.53;2.70;;;23.10;99.90;;;;;;4443229;28;656175;-67
2021/07/02 12:20:17;;;;;;;4.80;2.70;;;22.90;99.90;;;;;;4414816;28;657253;-67
2021/07/02 12:23:08;;;;;;;4.17;2.67;;;22.40;99.90;;;;;;4418186;28;656172;-67
2021/07/02 12:26:12;;;;;;;7.40;2.87;;;22.00;99.90;;;;;;4420586;28;656225;-66
2021/07/02 12:29:05;;;;;;;7.60;2.80;;;22.30;99.90;;;;;;4404146;28;656837;-67
2021/07/02 12:31:54;;;;;;;4.37;2.60;;;22.60;99.90;;;;;;4436820;28;655643;-68
2021/07/02 12:34:43;;;;;;;5.33;2.40;;;22.70;99.90;;;;;;4442806;28;655362;-67
2021/07/02 12:37:30;;;;;;;3.40;2.07;;;22.70;99.90;;;;;;4422197;28;656445;-67
2021/07/02 12:40:19;;;;;;;4.40;2.90;;;22.60;99.90;;;;;;4426503;28;655183;-69
2021/07/02 12:43:07;;;;;;;5.97;3.27;;;22.30;99.90;;;;;;4448439;28;655299;-66
2021/07/02 12:45:55;;;;;;;8.50;3.57;;;21.90;99.90;;;;;;4415677;28;655905;-66
2021/07/02 12:55:48;;;;;;;5.60;3.70;;;21.10;99.90;;;;;;4406222;28;655607;-68
2021/07/02 12:58:36;;;;;;;6.60;4.00;;;20.90;99.90;;;;;;4413709;28;655884;-67
2021/07/02 13:01:24;;;;;;;5.60;3.60;;;20.90;99.90;;;;;;4420547;28;657036;-67
2021/07/02 13:04:11;;;;;;;4.80;3.43;;;20.70;99.90;;;;;;4434545;28;655945;-67
2021/07/02 13:06:59;;;;;;;5.53;3.70;;;20.50;99.90;;;;;;4429381;28;655112;-68
2021/07/02 13:09:47;;;;;;;6.47;3.67;;;20.40;99.90;;;;;;4452897;28;655522;-66
2021/07/02 13:12:36;;;;;;;8.00;3.43;;;20.30;99.90;;;;;;4430622;28;655536;-67
2021/07/02 13:15:24;;;;;;;5.33;3.60;;;20.30;99.90;;;;;;4429095;28;656027;-67
2021/07/02 13:18:19;;;;;;;9.87;3.90;;;20.30;99.90;;;;;;4438709;28;655778;-66
2021/07/02 13:21:08;;;;;;;5.67;4.30;;;20.40;99.90;;;;;;4422156;28;655605;-66
2021/07/02 13:23:59;;;;;;;4.87;3.50;;;20.20;99.90;;;;;;4419793;28;657873;-67
2021/07/02 13:26:46;;;;;;;7.23;3.83;;;20.30;99.90;;;;;;4427025;28;655240;-66
2021/07/02 13:29:35;;;;;;;4.37;3.27;;;20.30;99.90;;;;;;4422139;28;655565;-66
2021/07/02 13:33:21;;;;;;;5.10;3.50;;;20.30;99.90;;;;;;4430400;28;655296;-67
2021/07/02 13:40:41;;;;;;;4.17;3.10;;;20.40;99.90;;;;;;4410796;28;655520;-67
2021/07/02 13:43:58;;;;;;;3.50;2.90;;;20.50;99.90;;;;;;4410747;28;655509;-66
2021/07/02 13:47:40;;;;;;;5.90;3.10;;;20.60;99.90;;;;;;4382651;28;656579;-67
2021/07/02 13:50:29;;;;;;;7.70;3.07;;;20.70;99.90;;;;;;4382295;28;656166;-69
2021/07/02 13:53:18;;;;;;;4.77;2.80;;;20.60;99.90;;;;;;4420691;28;655916;-68
2021/07/02 13:56:06;;;;;;;5.57;2.80;;;20.80;99.90;;;;;;4405251;28;656424;-67
2021/07/02 13:58:54;;;;;;;5.80;3.20;;;20.80;99.90;;;;;;4408040;28;655511;-67
2021/07/02 14:01:41;;;;;;;5.97;3.03;;;21.00;99.90;;;;;;4425351;28;656055;-67
2021/07/02 14:04:29;;;;;;;12.73;3.53;;;20.80;99.90;;;;;;4409696;28;655663;-67
2021/07/02 14:07:18;;;;;;;6.53;3.50;;;20.90;99.90;;;;;;4419416;28;657363;-67
2021/07/02 14:10:06;;;;;;;6.97;2.90;;;20.90;99.90;;;;;;4403847;28;655715;-67
2021/07/02 14:12:54;;;;;;;8.07;3.00;;;20.90;99.90;;;;;;4395600;28;655678;-68
2021/07/02 14:15:45;;;;;;;7.93;3.27;;;20.90;99.90;;;;;;4422192;28;656265;-67
2021/07/02 14:18:33;;;;;;;8.27;2.93;;;21.00;99.90;;;;;;4386284;28;655548;-69
2021/07/02 14:21:20;;;;;;;8.03;2.90;;;21.00;99.90;;;;;;4434492;28;656659;-67
2021/07/02 14:24:10;;;;;;;4.97;2.80;;;21.00;99.90;;;;;;4410957;28;655743;-69
2021/07/02 14:26:58;;;;;;;7.47;2.93;;;21.10;99.90;;;;;;4423760;28;655908;-68
2021/07/02 14:29:45;;;;;;;4.17;2.57;;;21.10;99.90;;;;;;4427906;28;658009;-67
2021/07/02 14:32:33;;;;;;;6.67;2.73;;;20.90;99.90;;;;;;4405505;28;655988;-67
2021/07/02 14:35:21;;;;;;;5.00;2.50;;;21.00;99.90;;;;;;4434769;28;656108;-67
2021/07/02 14:38:08;;;;;;;4.83;2.40;;;21.10;99.90;;;;;;4418008;28;656393;-66
2021/07/02 14:40:57;;;;;;;8.85;2.40;;;21.00;99.90;;;;;;4443625;28;656609;-66